Time;durP1;ratioP1;P1;durP2;ratioP2;P2;SDS_P1;SDS_P2;PMS_P1;PMS_P2;Temp;Humidity;BMP_temperature;BMP_pressure;BME280_temperature;BME280_humidity;BME280_pressure;Samples;Min_cycle;Max_cycle;Signal;HPM_P1;HPM_P2
2023/01/18 00:01:03;;;;;;;31.80;14.25;;;;;;;-4.06;100.00;99133.75;5026068;28;20020;-95
2023/01/18 00:03:32;;;;;;;30.73;13.90;;;;;;;-4.06;100.00;99138.81;5036041;28;20048;-95
2023/01/18 00:06:00;;;;;;;29.10;14.38;;;;;;;-4.04;100.00;99144.75;5034619;28;20079;-96
2023/01/18 00:08:26;;;;;;;31.70;13.63;;;;;;;-4.08;100.00;99135.44;5031557;28;20032;-96
2023/01/18 00:10:51;;;;;;;33.00;14.13;;;;;;;-4.04;100.00;99142.22;5036397;28;20021;-95
2023/01/18 00:13:17;;;;;;;34.20;14.00;;;;;;;-3.99;100.00;99140.56;5052654;28;20025;-95
2023/01/18 00:15:42;;;;;;;33.22;14.25;;;;;;;-4.09;100.00;99125.28;5052477;28;20456;-95
2023/01/18 00:18:08;;;;;;;30.60;13.32;;;;;;;-4.08;100.00;99130.38;5034441;28;20024;-94
2023/01/18 00:20:33;;;;;;;29.17;13.48;;;;;;;-4.05;100.00;99142.22;5035574;28;20028;-95
2023/01/18 00:23:00;;;;;;;32.03;14.00;;;;;;;-4.15;100.00;99133.69;5034418;28;20020;-94
2023/01/18 00:25:27;;;;;;;27.13;12.73;;;;;;;-4.07;100.00;99157.38;5039556;28;20018;-95
2023/01/18 00:27:53;;;;;;;31.27;12.88;;;;;;;-4.09;100.00;99163.25;5030873;28;20059;-94
2023/01/18 00:30:25;;;;;;;27.73;12.57;;;;;;;-4.26;100.00;99136.97;5033569;28;20032;-94
2023/01/18 00:32:57;;;;;;;31.50;13.20;;;;;;;-4.25;100.00;99141.22;5032576;28;20133;-94
2023/01/18 00:35:23;;;;;;;29.40;12.98;;;;;;;-4.19;100.00;99159.81;5033916;28;20503;-94
2023/01/18 00:37:50;;;;;;;30.00;13.32;;;;;;;-4.15;100.00;99169.09;5033514;28;20286;-95
2023/01/18 00:40:16;;;;;;;27.65;12.85;;;;;;;-4.16;100.00;99159.00;5033658;28;20027;-94
2023/01/18 00:45:26;;;;;;;31.00;13.55;;;;;;;-4.21;100.00;99155.56;5053431;28;20043;-95
2023/01/18 00:47:51;;;;;;;30.30;13.18;;;;;;;-4.18;100.00;99161.50;5027303;28;20132;-95
2023/01/18 00:50:19;;;;;;;30.58;13.05;;;;;;;-4.27;100.00;99146.25;5033633;28;20129;-93
2023/01/18 00:52:45;;;;;;;29.77;13.77;;;;;;;-4.30;100.00;99145.38;5035117;28;20033;-94
2023/01/18 00:55:12;;;;;;;25.70;12.57;;;;;;;-4.18;100.00;99169.09;5032275;28;20402;-95
2023/01/18 00:57:38;;;;;;;29.48;13.18;;;;;;;-4.22;100.00;99164.81;5052738;28;20029;-94
2023/01/18 01:00:10;;;;;;;30.77;12.73;;;;;;;-4.21;100.00;99176.66;5030680;28;20385;-94
2023/01/18 01:02:42;;;;;;;28.63;13.32;;;;;;;-4.22;100.00;99169.03;5033609;28;20111;-94
2023/01/18 01:07:59;;;;;;;25.92;12.50;;;;;;;-4.23;100.00;99164.84;5050211;28;20048;-93
2023/01/18 01:10:25;;;;;;;33.38;13.55;;;;;;;-4.28;100.00;99159.72;5034670;28;20017;-93
2023/01/18 01:26:32;;;;;;;31.08;12.85;;;;;;;-4.37;100.00;99175.66;5045697;28;20044;-95
2023/01/18 01:28:57;;;;;;;27.02;12.73;;;;;;;-4.37;100.00;99182.44;5027233;28;20025;-94
2023/01/18 01:31:22;;;;;;;28.42;12.68;;;;;;;-4.46;100.00;99184.84;5034968;28;20132;-95
2023/01/18 01:33:48;;;;;;;27.63;12.98;;;;;;;-4.48;100.00;99191.56;5030061;28;20041;-94
2023/01/18 01:36:16;;;;;;;26.95;12.63;;;;;;;-4.50;100.00;99189.03;5034604;28;20071;-95
2023/01/18 01:38:42;;;;;;;34.92;13.40;;;;;;;-4.48;100.00;99196.63;5053360;28;20051;-93
2023/01/18 01:41:13;;;;;;;31.58;14.00;;;;;;;-4.45;100.00;99197.53;5052911;28;20020;-94
2023/01/18 01:43:52;;;;;;;31.33;13.30;;;;;;;-4.45;100.00;99199.19;5033328;28;20429;-94
2023/01/18 01:46:31;;;;;;;28.27;13.60;;;;;;;-4.45;100.00;99202.56;5033151;28;20036;-94
2023/01/18 01:49:04;;;;;;;30.52;13.35;;;;;;;-4.45;100.00;99205.09;5034399;28;20103;-95
2023/01/18 01:51:31;;;;;;;29.85;13.45;;;;;;;-4.45;100.00;99206.78;5032785;28;20059;-94
2023/01/18 01:54:01;;;;;;;31.75;13.52;;;;;;;-4.45;100.00;99214.38;5032813;28;20035;-94
2023/01/18 01:56:28;;;;;;;32.22;13.55;;;;;;;-4.49;100.00;99212.63;5035830;28;20067;-95
2023/01/18 01:58:57;;;;;;;30.55;13.25;;;;;;;-4.46;100.00;99205.94;5031074;28;20503;-94
2023/01/18 02:01:23;;;;;;;30.02;13.57;;;;;;;-4.47;100.00;99204.22;5055427;28;20398;-94
2023/01/18 02:03:49;;;;;;;33.00;13.57;;;;;;;-4.42;100.00;99206.78;5032022;28;20434;-95
2023/01/18 02:06:30;;;;;;;31.70;13.50;;;;;;;-4.54;100.00;99194.88;5053853;28;20509;-95
2023/01/18 02:09:06;;;;;;;34.45;13.55;;;;;;;-4.50;100.00;99210.91;5038232;28;20032;-95
2023/01/18 02:11:32;;;;;;;29.98;13.73;;;;;;;-4.63;100.00;99187.22;5018594;28;20091;-96
2023/01/18 02:14:02;;;;;;;31.35;14.43;;;;;;;-4.58;100.00;99193.19;5033762;28;20081;-95
2023/01/18 02:16:45;;;;;;;36.10;14.32;;;;;;;-4.51;100.00;99204.19;5054725;28;20104;-94
2023/01/18 02:19:52;;;;;;;29.60;13.57;;;;;;;-4.64;100.00;99189.75;5059098;28;20032;-94
2023/01/18 02:22:35;;;;;;;32.10;13.10;;;;;;;-4.51;100.00;99205.03;5068237;28;20019;-95
2023/01/18 02:25:19;;;;;;;29.75;13.40;;;;;;;-4.52;100.00;99203.34;5059699;28;20020;-96
2023/01/18 02:28:08;;;;;;;30.60;13.80;;;;;;;-4.66;100.00;99192.25;5076911;28;20017;-95
2023/01/18 02:30:46;;;;;;;27.88;12.77;;;;;;;-4.58;100.00;99212.56;5054421;28;20009;-94
2023/01/18 02:33:29;;;;;;;29.90;13.02;;;;;;;-4.57;100.00;99220.13;5051862;28;20036;-95
2023/01/18 02:35:56;;;;;;;29.80;13.77;;;;;;;-4.55;100.00;99220.16;5059742;28;20049;-95
2023/01/18 02:38:39;;;;;;;33.40;14.20;;;;;;;-4.58;100.00;99218.47;5059469;28;20096;-95
2023/01/18 02:47:23;;;;;;;27.60;11.77;;;;;;;-4.73;100.00;99202.28;5075170;28;19920;-93
2023/01/18 02:49:48;;;;;;;32.13;13.73;;;;;;;-4.61;100.00;99231.03;5065356;28;20033;-94
2023/01/18 02:52:37;;;;;;;30.67;13.32;;;;;;;-4.61;100.00;99230.19;5047371;28;20032;-94
2023/01/18 02:55:05;;;;;;;32.33;13.18;;;;;;;-4.63;100.00;99231.84;5075525;28;20021;-93
2023/01/18 02:57:32;;;;;;;32.05;13.23;;;;;;;-4.64;100.00;99230.19;5074476;28;20017;-95
2023/01/18 03:00:00;;;;;;;33.05;14.13;;;;;;;-4.66;100.00;99227.63;5069519;28;20017;-95
2023/01/18 03:02:27;;;;;;;29.30;13.32;;;;;;;-4.67;100.00;99230.13;5059808;28;20021;-94
2023/01/18 03:04:54;;;;;;;30.45;13.48;;;;;;;-4.68;100.00;99225.91;5075365;28;20047;-95
2023/01/18 03:07:27;;;;;;;31.70;13.30;;;;;;;-4.66;100.00;99234.38;5079671;28;20033;-94
2023/01/18 03:09:54;;;;;;;29.63;13.37;;;;;;;-4.67;100.00;99232.66;5055896;28;20041;-95
2023/01/18 03:12:44;;;;;;;28.05;13.45;;;;;;;-4.66;100.00;99234.38;5031898;28;20082;-95
2023/01/18 03:15:16;;;;;;;34.08;13.80;;;;;;;-4.66;100.00;99232.69;5054264;28;20020;-94
2023/01/18 03:17:49;;;;;;;29.13;13.55;;;;;;;-4.71;100.00;99221.69;5050770;28;20040;-94
2023/01/18 03:20:24;;;;;;;32.50;13.38;;;;;;;-4.74;100.00;99225.84;5041788;28;20029;-94
2023/01/18 03:25:47;;;;;;;28.77;12.70;;;;;;;-4.75;100.00;99235.09;5054451;28;20066;-94
2023/01/18 03:34:19;;;;;;;27.63;12.70;;;;;;;-4.78;100.00;99242.66;5049265;28;20125;-94
2023/01/18 03:36:47;;;;;;;28.83;12.73;;;;;;;-4.82;100.00;99244.28;5014975;28;20033;-94
2023/01/18 03:39:22;;;;;;;27.23;12.77;;;;;;;-4.84;100.00;99248.47;5035558;28;20021;-94
2023/01/18 03:41:52;;;;;;;30.23;12.77;;;;;;;-4.88;100.00;99250.94;5035623;28;20025;-95
2023/01/18 03:44:33;;;;;;;28.05;11.98;;;;;;;-4.95;100.00;99244.97;5032053;28;20021;-95
2023/01/18 03:46:59;;;;;;;27.10;12.82;;;;;;;-4.95;100.00;99251.69;5029065;28;20052;-94
2023/01/18 03:49:26;;;;;;;29.52;13.48;;;;;;;-4.98;100.00;99251.69;5046922;28;20454;-94
2023/01/18 03:52:05;;;;;;;28.30;12.35;;;;;;;-5.03;100.00;99245.69;5035277;28;20021;-94
2023/01/18 03:54:42;;;;;;;25.63;12.52;;;;;;;-5.06;100.00;99261.69;5029089;28;20254;-95
2023/01/18 03:57:33;;;;;;;24.80;11.90;;;;;;;-5.03;100.00;99266.75;5036218;28;20075;-94
2023/01/18 04:00:00;;;;;;;28.92;12.60;;;;;;;-5.08;100.00;99273.44;5052903;28;20462;-94
2023/01/18 04:02:26;;;;;;;24.65;12.50;;;;;;;-5.15;100.00;99268.28;5038593;28;20029;-95
2023/01/18 04:04:56;;;;;;;26.83;12.55;;;;;;;-5.15;100.00;99279.22;5043099;28;20017;-94
2023/01/18 04:07:23;;;;;;;28.80;12.30;;;;;;;-5.15;100.00;99279.22;5035351;28;20027;-94
2023/01/18 04:09:48;;;;;;;27.55;13.25;;;;;;;-5.14;100.00;99285.97;5034149;28;20025;-94
2023/01/18 04:12:14;;;;;;;27.25;12.60;;;;;;;-5.16;100.00;99290.16;5031424;28;20028;-94
2023/01/18 04:14:39;;;;;;;27.50;12.35;;;;;;;-5.17;100.00;99290.97;5031517;28;20598;-94
2023/01/18 04:17:04;;;;;;;24.30;11.70;;;;;;;-5.19;100.00;99290.97;5031653;28;20031;-94
2023/01/18 04:19:30;;;;;;;26.92;11.68;;;;;;;-5.17;100.00;99298.56;5032426;28;20374;-94
2023/01/18 04:21:55;;;;;;;28.15;12.38;;;;;;;-5.17;100.00;99296.03;5029085;28;20056;-95
2023/01/18 04:24:20;;;;;;;26.35;11.55;;;;;;;-5.20;100.00;99289.28;5025014;28;20029;-95
2023/01/18 04:26:46;;;;;;;27.00;12.02;;;;;;;-5.22;100.00;99288.41;5032643;28;20052;-93
2023/01/18 04:29:11;;;;;;;27.33;12.05;;;;;;;-5.20;100.00;99298.53;5033428;28;20029;-93
2023/01/18 04:31:36;;;;;;;25.60;11.95;;;;;;;-5.18;100.00;99286.75;5029743;28;20025;-96
2023/01/18 04:34:02;;;;;;;26.00;12.15;;;;;;;-5.19;100.00;99292.66;5026869;28;20095;-94
2023/01/18 04:36:27;;;;;;;25.90;12.02;;;;;;;-5.21;100.00;99287.56;5032444;28;20057;-95
2023/01/18 04:38:54;;;;;;;27.13;11.82;;;;;;;-5.15;100.00;99288.47;5022717;28;20132;-94
2023/01/18 04:41:20;;;;;;;28.67;12.15;;;;;;;-5.15;100.00;99294.38;5030999;28;20028;-95
2023/01/18 04:43:45;;;;;;;31.23;12.60;;;;;;;-5.17;100.00;99298.56;5027289;28;20021;-94
2023/01/18 04:46:10;;;;;;;25.38;11.90;;;;;;;-5.18;100.00;99297.69;5025133;28;20056;-94
2023/01/18 04:48:36;;;;;;;26.20;12.55;;;;;;;-5.15;100.00;99301.97;5026089;28;20035;-95
2023/01/18 04:51:01;;;;;;;27.88;12.52;;;;;;;-5.17;100.00;99298.56;5027766;28;20100;-95
2023/01/18 04:53:26;;;;;;;30.77;12.10;;;;;;;-5.14;100.00;99310.38;5031703;28;20104;-94
2023/01/18 04:55:52;;;;;;;28.83;13.00;;;;;;;-5.14;100.00;99311.25;5027888;28;20032;-95
2023/01/18 04:58:17;;;;;;;26.10;12.43;;;;;;;-5.09;100.00;99313.81;5027911;28;20013;-95
2023/01/18 05:00:43;;;;;;;27.58;11.50;;;;;;;-5.14;100.00;99308.72;5025638;28;20021;-94
2023/01/18 05:03:11;;;;;;;29.02;12.77;;;;;;;-5.10;100.00;99304.53;5030940;28;20029;-94
2023/01/18 05:05:37;;;;;;;29.73;13.38;;;;;;;-5.07;100.00;99322.28;5032073;28;20013;-94
2023/01/18 05:08:02;;;;;;;31.90;12.63;;;;;;;-5.12;100.00;99314.66;5027071;28;20394;-94
2023/01/18 05:10:28;;;;;;;28.10;12.60;;;;;;;-5.06;100.00;99314.72;5020435;28;20458;-95
2023/01/18 05:12:53;;;;;;;32.10;13.68;;;;;;;-5.03;100.00;99324.84;5028997;28;20029;-94
2023/01/18 05:15:28;;;;;;;28.35;13.32;;;;;;;-5.01;100.00;99338.38;5022704;28;20026;-94
2023/01/18 05:17:56;;;;;;;30.73;12.90;;;;;;;-5.05;100.00;99330.72;5031812;28;20045;-95
2023/01/18 05:20:21;;;;;;;30.80;12.60;;;;;;;-5.05;100.00;99331.56;5019079;28;20032;-94
2023/01/18 05:22:47;;;;;;;26.55;12.50;;;;;;;-5.08;100.00;99330.69;5029611;28;20017;-94
2023/01/18 05:25:12;;;;;;;29.73;13.68;;;;;;;-5.06;100.00;99339.97;5023782;28;20021;-94
2023/01/18 05:27:37;;;;;;;31.60;12.73;;;;;;;-5.08;100.00;99338.25;5025952;28;20032;-94
2023/01/18 05:30:03;;;;;;;26.98;12.27;;;;;;;-5.14;100.00;99333.97;5027482;28;20078;-95
2023/01/18 05:32:29;;;;;;;30.65;13.20;;;;;;;-5.12;100.00;99336.53;5021508;28;20498;-94
2023/01/18 05:34:54;;;;;;;30.05;13.35;;;;;;;-5.22;100.00;99327.94;5025658;28;20017;-94
2023/01/18 05:37:20;;;;;;;27.05;12.73;;;;;;;-5.18;100.00;99332.22;5017975;28;20532;-95
2023/01/18 05:39:45;;;;;;;33.65;14.20;;;;;;;-5.24;100.00;99311.91;5044852;28;20033;-96
2023/01/18 05:42:10;;;;;;;30.00;13.68;;;;;;;-5.17;100.00;99328.84;5028106;28;20029;-96
2023/01/18 05:44:36;;;;;;;31.45;14.00;;;;;;;-5.07;100.00;99333.22;5021271;28;20056;-96
2023/01/18 05:47:01;;;;;;;29.42;13.77;;;;;;;-4.99;100.00;99343.44;5026048;28;20021;-94
2023/01/18 05:49:30;;;;;;;34.20;14.38;;;;;;;-4.93;100.00;99349.44;5019398;28;20470;-94
2023/01/18 05:51:55;;;;;;;28.90;13.98;;;;;;;-4.91;100.00;99352.81;5026139;28;20025;-94
2023/01/18 05:54:21;;;;;;;35.28;13.85;;;;;;;-4.94;100.00;99350.25;5019426;28;20061;-96
2023/01/18 05:56:47;;;;;;;32.92;13.80;;;;;;;-4.93;100.00;99362.06;5023294;28;20080;-95
2023/01/18 05:59:14;;;;;;;32.65;14.20;;;;;;;-4.95;100.00;99363.72;5025131;28;20424;-93
2023/01/18 06:01:40;;;;;;;29.52;14.02;;;;;;;-5.02;100.00;99363.59;5019354;28;20029;-95
2023/01/18 06:04:06;;;;;;;33.05;13.75;;;;;;;-4.99;100.00;99368.72;5025572;28;20037;-96
2023/01/18 06:06:31;;;;;;;33.38;13.98;;;;;;;-5.02;100.00;99371.19;5027483;28;20029;-95
2023/01/18 06:08:57;;;;;;;32.55;14.15;;;;;;;-5.00;100.00;99379.63;5040816;28;20040;-96
2023/01/18 06:11:31;;;;;;;32.70;14.40;;;;;;;-5.01;100.00;99383.84;5033832;28;20026;-96
2023/01/18 06:13:56;;;;;;;;;;;;;;;-4.98;100.00;99388.09;5035634;28;20053;-95
2023/01/18 06:16:23;;;;;;;33.08;13.82;;;;;;;-5.17;100.00;99365.06;5029108;28;19916;-96
2023/01/18 06:18:51;;;;;;;33.60;14.40;;;;;;;-4.99;100.00;99392.28;5034373;28;20025;-96
2023/01/18 06:21:20;;;;;;;31.75;13.57;;;;;;;-5.14;100.00;99371.84;5044384;28;20032;-96
2023/01/18 06:26:16;;;;;;;34.88;14.15;;;;;;;-5.01;100.00;99396.47;5053307;23;20059;-95
2023/01/18 06:28:47;;;;;;;31.17;14.18;;;;;;;-5.14;100.00;99374.38;4977018;28;20033;-96
2023/01/18 06:31:24;;;;;;;37.05;15.40;;;;;;;-5.13;100.00;99380.28;4982249;28;20029;-96
2023/01/18 06:34:14;;;;;;;34.63;15.27;;;;;;;-5.11;100.00;99381.13;4978254;28;20053;-96
2023/01/18 06:36:39;;;;;;;31.67;14.15;;;;;;;-4.94;100.00;99415.09;4993651;23;20190;-68
2023/01/18 06:39:05;;;;;;;33.55;15.35;;;;;;;-4.94;100.00;99413.41;4995315;28;20149;-68
2023/01/18 06:41:30;;;;;;;38.22;15.68;;;;;;;-4.95;100.00;99414.25;4997216;28;20057;-68
2023/01/18 06:43:56;;;;;;;38.50;16.15;;;;;;;-4.97;100.00;99413.34;4998155;28;20017;-68
2023/01/18 06:46:21;;;;;;;35.13;15.65;;;;;;;-5.01;100.00;99421.72;4996169;28;20045;-68
2023/01/18 06:48:47;;;;;;;35.30;15.75;;;;;;;-4.98;100.00;99425.97;4995218;28;20036;-68
2023/01/18 06:51:12;;;;;;;32.33;15.77;;;;;;;-4.97;100.00;99433.56;4995723;28;20145;-68
2023/01/18 06:53:38;;;;;;;35.95;17.15;;;;;;;-4.96;100.00;99431.88;4996826;28;20034;-68
2023/01/18 06:56:09;;;;;;;38.45;16.52;;;;;;;-4.91;100.00;99441.22;4996781;28;20132;-67
2023/01/18 06:58:34;;;;;;;36.17;16.40;;;;;;;-4.90;100.00;99440.41;4996532;28;20101;-68
2023/01/18 07:01:00;;;;;;;36.42;17.05;;;;;;;-4.89;100.00;99442.13;4996202;28;20120;-68
2023/01/18 07:03:26;;;;;;;38.28;16.27;;;;;;;-4.87;100.00;99445.53;4997812;28;20109;-68
2023/01/18 07:05:53;;;;;;;39.10;17.00;;;;;;;-4.86;100.00;99449.75;4997441;28;20109;-67
2023/01/18 07:08:19;;;;;;;36.75;16.77;;;;;;;-4.83;100.00;99456.50;4980196;28;20030;-67
2023/01/18 07:10:45;;;;;;;34.72;15.95;;;;;;;-4.80;100.00;99462.47;4997068;28;20519;-68
2023/01/18 07:13:11;;;;;;;37.20;16.52;;;;;;;-4.79;100.00;99463.34;4997351;28;20034;-68
2023/01/18 07:15:36;;;;;;;35.85;16.10;;;;;;;-4.79;100.00;99469.25;4996583;28;20018;-67
2023/01/18 07:18:01;;;;;;;37.75;16.52;;;;;;;-4.80;100.00;99465.00;4997862;28;20026;-68
2023/01/18 07:20:28;;;;;;;38.22;17.33;;;;;;;-4.81;100.00;99459.91;4995856;28;20034;-67
2023/01/18 07:22:53;;;;;;;41.20;17.25;;;;;;;-4.74;100.00;99468.44;4997725;28;20554;-68
2023/01/18 07:25:19;;;;;;;40.50;16.65;;;;;;;-4.74;100.00;99465.91;4997289;28;20109;-68
2023/01/18 07:27:45;;;;;;;40.20;17.17;;;;;;;-4.77;100.00;99467.56;4992893;28;20026;-68
2023/01/18 07:30:11;;;;;;;42.55;17.98;;;;;;;-4.72;100.00;99476.91;4996277;28;20500;-68
2023/01/18 07:32:37;;;;;;;37.55;17.55;;;;;;;-4.73;100.00;99481.13;4995648;28;20034;-67
2023/01/18 07:35:04;;;;;;;36.42;17.73;;;;;;;-4.72;100.00;99479.44;4996961;28;20037;-67
2023/01/18 07:37:29;;;;;;;43.47;18.70;;;;;;;-4.71;100.00;99479.47;4995748;28;20172;-67
2023/01/18 07:39:54;;;;;;;40.53;18.15;;;;;;;-4.69;100.00;99487.06;4996392;28;20437;-67
2023/01/18 07:42:20;;;;;;;37.45;17.83;;;;;;;-4.72;100.00;99490.41;4996638;28;20038;-68
2023/01/18 07:44:45;;;;;;;39.90;17.52;;;;;;;-4.73;100.00;99487.84;4995809;28;20026;-67
2023/01/18 07:47:10;;;;;;;40.58;17.10;;;;;;;-4.72;100.00;99494.59;4995266;28;20104;-67
2023/01/18 07:49:36;;;;;;;38.35;17.38;;;;;;;-4.71;100.00;99497.16;4997331;28;20026;-68
2023/01/18 07:52:01;;;;;;;39.13;17.70;;;;;;;-4.72;100.00;99494.59;4996772;28;20033;-67
2023/01/18 07:54:26;;;;;;;37.05;17.77;;;;;;;-4.68;100.00;99503.91;4994795;28;20104;-67
2023/01/18 07:56:52;;;;;;;37.63;17.35;;;;;;;-4.67;100.00;99503.94;4995957;28;20489;-67
2023/01/18 07:59:17;;;;;;;40.78;17.08;;;;;;;-4.67;100.00;99500.56;4996777;28;20036;-67
2023/01/18 08:01:43;;;;;;;38.38;17.85;;;;;;;-4.66;100.00;99504.81;4992323;28;20030;-67
2023/01/18 08:04:08;;;;;;;38.20;17.38;;;;;;;-4.67;100.00;99508.16;4995745;28;20058;-67
2023/01/18 08:06:33;;;;;;;37.63;17.55;;;;;;;-4.67;100.00;99505.63;4995042;28;20022;-67
2023/01/18 08:08:59;;;;;;;40.30;18.02;;;;;;;-4.65;100.00;99517.47;4993257;28;20029;-67
2023/01/18 08:11:25;;;;;;;40.05;18.15;;;;;;;-4.64;100.00;99516.63;4995481;28;20030;-67
2023/01/18 08:13:51;;;;;;;44.50;18.65;;;;;;;-4.62;100.00;99519.19;4992050;28;20022;-67
2023/01/18 08:16:17;;;;;;;40.13;17.52;;;;;;;-4.61;100.00;99526.78;4995095;28;20105;-67
2023/01/18 08:18:44;;;;;;;42.03;18.98;;;;;;;-4.58;100.00;99523.47;4995658;28;20034;-67
2023/01/18 08:21:11;;;;;;;37.10;17.85;;;;;;;-4.55;100.00;99529.41;4995962;28;20030;-68
2023/01/18 08:23:37;;;;;;;44.88;18.98;;;;;;;-4.50;100.00;99526.94;4993087;28;20027;-67
2023/01/18 08:26:04;;;;;;;41.80;19.58;;;;;;;-4.47;100.00;99529.53;4993494;28;20030;-68
2023/01/18 08:28:29;;;;;;;40.85;19.40;;;;;;;-4.38;100.00;99532.22;4993194;28;20018;-67
2023/01/18 08:31:05;;;;;;;44.55;19.42;;;;;;;-4.32;100.00;99532.28;4994618;28;20045;-68
2023/01/18 08:33:30;;;;;;;41.22;19.48;;;;;;;-4.26;100.00;99539.13;4995540;28;20033;-68
2023/01/18 08:35:56;;;;;;;43.95;20.08;;;;;;;-4.23;100.00;99529.06;4994680;28;20054;-68
2023/01/18 08:38:22;;;;;;;48.38;20.80;;;;;;;-4.18;100.00;99550.19;4995221;28;20033;-67
2023/01/18 08:40:47;;;;;;;43.00;19.55;;;;;;;-4.15;100.00;99540.09;4995113;28;20065;-67
2023/01/18 08:43:12;;;;;;;42.53;20.20;;;;;;;-4.13;100.00;99539.31;4996361;28;20072;-67
2023/01/18 08:45:38;;;;;;;44.65;20.33;;;;;;;-4.09;100.00;99545.25;4995011;28;20487;-67
2023/01/18 08:48:06;;;;;;;44.22;19.55;;;;;;;-4.02;100.00;99552.94;4995613;28;20029;-67
2023/01/18 08:50:33;;;;;;;47.30;20.60;;;;;;;-3.94;100.00;99549.66;4995567;28;20044;-67
2023/01/18 08:52:59;;;;;;;47.92;22.10;;;;;;;-3.87;100.00;99561.56;4993887;28;20535;-67
2023/01/18 08:55:26;;;;;;;45.20;20.73;;;;;;;-3.81;100.00;99562.50;4993079;28;20572;-67
2023/01/18 08:57:56;;;;;;;42.47;20.20;;;;;;;-3.76;100.00;99565.13;4995651;28;20030;-67
2023/01/18 09:00:22;;;;;;;39.65;19.77;;;;;;;-3.68;100.00;99560.97;4994219;28;20087;-67
2023/01/18 09:02:48;;;;;;;45.83;20.05;;;;;;;-3.61;100.00;99565.28;4974608;28;20427;-67
2023/01/18 09:05:13;;;;;;;40.58;19.33;;;;;;;-3.56;100.00;99565.34;4993246;28;20030;-67
2023/01/18 09:07:39;;;;;;;41.05;20.20;;;;;;;-3.49;100.00;99573.06;4994314;28;20083;-67
2023/01/18 09:10:05;;;;;;;42.08;20.42;;;;;;;-3.43;100.00;99578.19;4995416;28;20041;-67
2023/01/18 09:12:33;;;;;;;44.10;20.30;;;;;;;-3.39;100.00;99572.31;4995778;28;20081;-67
2023/01/18 09:14:59;;;;;;;43.22;20.40;;;;;;;-3.36;100.00;99577.44;4994167;28;20457;-67
2023/01/18 09:17:24;;;;;;;40.97;18.50;;;;;;;-3.29;100.00;99579.19;4994886;28;20662;-67
2023/01/18 09:19:50;;;;;;;40.88;18.77;;;;;;;-3.23;100.00;99581.78;4995221;28;20030;-66
2023/01/18 09:22:15;;;;;;;40.03;18.45;;;;;;;-3.17;100.00;99585.22;4995040;28;20085;-67
2023/01/18 09:24:41;;;;;;;41.58;19.58;;;;;;;-3.13;100.00;99597.94;4994429;28;20026;-67
2023/01/18 09:27:06;;;;;;;39.50;18.88;;;;;;;-3.08;100.00;99600.53;4993440;28;20029;-66
2023/01/18 09:29:32;;;;;;;45.13;19.95;;;;;;;-3.04;100.00;99603.13;4994561;28;20030;-67
2023/01/18 09:31:58;;;;;;;43.85;19.00;;;;;;;-3.01;100.00;99608.22;4990929;28;20041;-66
2023/01/18 09:34:24;;;;;;;41.58;19.10;;;;;;;-2.95;100.00;99610.81;4993759;28;20544;-67
2023/01/18 09:36:51;;;;;;;42.25;19.60;;;;;;;-2.91;100.00;99607.47;4994092;28;20153;-67
2023/01/18 09:39:18;;;;;;;41.35;18.63;;;;;;;-2.86;100.00;99612.56;4994537;28;20034;-67
2023/01/18 09:41:51;;;;;;;37.50;18.55;;;;;;;-2.79;100.00;99614.34;4994702;28;20022;-67
2023/01/18 09:44:29;;;;;;;43.60;18.13;;;;;;;-2.72;100.00;99621.19;4994614;28;20022;-67
2023/01/18 09:47:16;;;;;;;39.25;18.77;;;;;;;-2.66;100.00;99625.47;4994795;28;20522;-66
2023/01/18 09:49:54;;;;;;;38.80;18.42;;;;;;;-2.61;100.00;99627.22;4993837;28;20045;-66
2023/01/18 09:52:31;;;;;;;39.53;18.70;;;;;;;-2.55;100.00;99618.81;4995787;28;20029;-67
2023/01/18 09:55:11;;;;;;;39.25;16.73;;;;;;;-2.48;100.00;99623.97;4991325;28;20033;-66
2023/01/18 09:58:06;;;;;;;37.33;18.33;;;;;;;-2.40;100.00;99624.03;4993771;28;20038;-66
2023/01/18 10:00:36;;;;;;;44.28;17.77;;;;;;;-2.34;100.00;99629.16;4988561;28;20435;-66
2023/01/18 10:03:27;;;;;;;36.35;17.83;;;;;;;-2.27;100.00;99627.50;4994322;28;20022;-66
2023/01/18 10:06:07;;;;;;;40.58;18.63;;;;;;;-2.24;100.00;99627.53;4994432;28;20022;-66
2023/01/18 10:08:38;;;;;;;39.40;18.30;;;;;;;-2.19;100.00;99633.50;4994417;28;20052;-66
2023/01/18 10:11:28;;;;;;;34.60;17.13;;;;;;;-2.14;100.00;99636.91;4992751;28;20034;-66
2023/01/18 10:14:18;;;;;;;38.90;17.58;;;;;;;-2.09;100.00;99640.34;4992423;28;20033;-66
2023/01/18 10:16:52;;;;;;;41.90;19.25;;;;;;;-2.05;100.00;99642.91;4992741;28;20030;-67
2023/01/18 10:19:23;;;;;;;36.78;17.77;;;;;;;-2.00;100.00;99636.19;4993424;28;20037;-66
2023/01/18 10:22:02;;;;;;;36.75;17.75;;;;;;;-1.94;100.00;99643.00;4994274;28;20385;-66
2023/01/18 10:24:43;;;;;;;40.70;18.33;;;;;;;-1.88;100.00;99639.63;4992014;28;20072;-66
2023/01/18 10:27:26;;;;;;;38.55;18.58;;;;;;;-1.83;100.00;99648.97;4994271;28;20450;-66
2023/01/18 10:30:39;;;;;;;37.65;18.48;;;;;;;-1.74;100.00;99648.19;4991825;28;20108;-66
2023/01/18 10:33:19;;;;;;;37.20;18.75;;;;;;;-1.70;100.00;99635.53;4980343;28;20065;-66
2023/01/18 10:35:49;;;;;;;36.92;18.35;;;;;;;-1.66;100.00;99638.94;4978432;28;20508;-66
2023/01/18 10:38:25;;;;;;;39.83;18.75;;;;;;;-1.63;100.00;99638.94;4989477;28;20030;-66
2023/01/18 10:40:56;;;;;;;37.47;18.38;;;;;;;-1.57;100.00;99644.09;4991686;28;20030;-66
2023/01/18 10:43:24;;;;;;;37.58;18.45;;;;;;;-1.53;100.00;99642.41;4992041;28;20038;-67
2023/01/18 10:45:52;;;;;;;40.67;17.95;;;;;;;-1.48;100.00;99649.19;4993098;28;20451;-66
2023/01/18 10:48:17;;;;;;;36.10;17.35;;;;;;;-1.43;100.00;99642.44;4995033;28;20034;-66
2023/01/18 10:50:56;;;;;;;34.97;18.70;;;;;;;-1.36;100.00;99650.94;4976405;28;20404;-66
2023/01/18 10:53:35;;;;;;;38.20;18.75;;;;;;;-1.33;100.00;99653.50;4991863;28;20688;-66
2023/01/18 10:56:05;;;;;;;35.20;17.90;;;;;;;-1.30;100.00;99646.78;4992141;28;20398;-66
2023/01/18 10:58:51;;;;;;;34.45;17.70;;;;;;;-1.24;100.00;99653.56;4994453;28;20507;-67
2023/01/18 11:01:21;;;;;;;37.10;18.40;;;;;;;-1.17;100.00;99659.53;4992226;28;20561;-66
2023/01/18 11:04:04;;;;;;;41.22;20.15;;;;;;;-1.08;100.00;99657.00;4994169;28;20033;-67
2023/01/18 11:06:44;;;;;;;33.22;17.63;;;;;;;-1.04;100.00;99646.88;4992944;28;20041;-67
2023/01/18 11:09:43;;;;;;;42.40;18.73;;;;;;;-0.98;100.00;99643.50;4989450;28;20022;-67
2023/01/18 11:12:41;;;;;;;40.13;18.67;;;;;;;-0.94;100.00;99657.91;4993877;28;20092;-66
2023/01/18 11:15:12;;;;;;;37.85;18.05;;;;;;;-0.89;100.00;99659.59;4994197;28;20030;-67
2023/01/18 11:18:01;;;;;;;35.63;17.20;;;;;;;-0.85;100.00;99661.34;4993863;28;20033;-66
2023/01/18 11:20:34;;;;;;;35.58;17.73;;;;;;;-0.78;100.00;99662.22;4993676;28;20041;-66
2023/01/18 11:23:08;;;;;;;38.08;18.30;;;;;;;-0.71;100.00;99661.38;4994551;28;20496;-67
2023/01/18 11:25:44;;;;;;;;;;;;;;;-0.67;100.00;99657.13;4995695;28;20273;-67
2023/01/18 11:28:19;;;;;;;31.65;15.73;;;;;;;-0.60;100.00;99652.06;4995530;28;19944;-66
2023/01/18 11:31:16;;;;;;;33.88;17.25;;;;;;;-0.55;100.00;99649.53;4995825;28;20038;-66
2023/01/18 11:33:54;;;;;;;33.33;17.30;;;;;;;-0.50;100.00;99655.50;4995587;28;20030;-66
2023/01/18 11:36:33;;;;;;;35.90;17.42;;;;;;;-0.44;100.00;99647.84;4994140;28;20178;-66
2023/01/18 11:39:17;;;;;;;31.95;15.52;;;;;;;-0.37;100.00;99647.00;4995756;28;20034;-67
2023/01/18 11:41:42;;;;;;;36.03;16.63;;;;;;;-0.31;100.00;99639.38;4996082;28;20030;-67
2023/01/18 11:44:19;;;;;;;34.53;17.17;;;;;;;-0.25;100.00;99647.00;4994073;28;20735;-66
2023/01/18 11:46:52;;;;;;;31.73;14.20;;;;;;;-0.20;100.00;99640.22;4971191;28;20018;-66
2023/01/18 11:49:22;;;;;;;34.35;16.80;;;;;;;-0.12;100.00;99641.06;4996114;28;20038;-67
2023/01/18 11:51:56;;;;;;;33.65;16.02;;;;;;;-0.06;100.00;99640.22;4996457;28;20084;-66
2023/01/18 11:54:24;;;;;;;32.17;17.33;;;;;;;0.02;100.00;99652.94;4996306;28;20065;-67
2023/01/18 11:56:51;;;;;;;32.05;16.15;;;;;;;0.07;100.00;99651.28;4994196;28;20041;-67
2023/01/18 11:59:40;;;;;;;35.80;16.85;;;;;;;0.12;100.00;99655.50;4995226;28;20109;-67